createdAt,value
2023-01-17T00:04:01.484Z,23.55
2023-01-17T00:09:22.982Z,24.02
2023-01-17T00:14:28.209Z,24.60
2023-01-17T00:19:49.133Z,23.05
2023-01-17T00:25:10.219Z,22.33
2023-01-17T00:30:14.435Z,21.83
2023-01-17T00:35:17.579Z,21.55
2023-01-17T00:40:19.905Z,20.85
2023-01-17T00:45:42.548Z,22.90
2023-01-17T00:51:03.492Z,24.27
2023-01-17T00:56:25.362Z,21.95
2023-01-17T01:01:48.006Z,21.80
2023-01-17T01:07:08.639Z,21.63
2023-01-17T01:12:29.658Z,22.65
2023-01-17T01:17:52.153Z,21.75
2023-01-17T01:23:13.238Z,22.05
2023-01-17T01:28:34.391Z,21.40
2023-01-17T01:33:39.449Z,22.52
2023-01-17T01:38:43.455Z,22.50
2023-01-17T01:43:49.628Z,21.65
2023-01-17T01:48:57.629Z,19.88
2023-01-17T01:54:08.039Z,11.38
2023-01-17T01:59:16.824Z,9.20
2023-01-17T02:04:23.577Z,7.40
2023-01-17T02:09:27.899Z,6.88
2023-01-17T02:14:31.432Z,6.22
2023-01-17T02:20:06.150Z,4.80
2023-01-17T02:25:36.855Z,5.22
2023-01-17T02:30:47.106Z,5.75
2023-01-17T02:35:59.531Z,5.68
2023-01-17T02:41:08.175Z,5.22
2023-01-17T02:46:12.987Z,4.57
2023-01-17T02:51:46.151Z,4.80
2023-01-17T02:57:00.626Z,5.97
2023-01-17T03:02:13.314Z,5.15
2023-01-17T03:07:20.923Z,4.83
2023-01-17T03:12:27.400Z,4.32
2023-01-17T03:17:33.935Z,3.47
2023-01-17T03:22:37.327Z,3.85
2023-01-17T03:27:40.765Z,4.32
2023-01-17T03:32:45.839Z,3.80
2023-01-17T03:37:49.212Z,3.47
2023-01-17T03:42:53.025Z,3.30
2023-01-17T03:47:57.911Z,5.45
2023-01-17T03:53:01.405Z,5.97
2023-01-17T03:58:04.893Z,8.30
2023-01-17T04:03:09.671Z,6.22
2023-01-17T04:08:13.134Z,7.00
2023-01-17T04:13:17.591Z,6.90
2023-01-17T04:18:24.589Z,6.50
2023-01-17T04:23:28.115Z,5.68
2023-01-17T04:28:31.897Z,4.95
2023-01-17T04:33:36.953Z,5.18
2023-01-17T04:38:40.394Z,4.20
2023-01-17T04:43:43.787Z,3.45
2023-01-17T04:48:48.795Z,3.92
2023-01-17T04:53:52.263Z,3.65
2023-01-17T04:58:57.962Z,4.28
2023-01-17T05:04:02.926Z,2.72
2023-01-17T05:09:06.798Z,2.88
2023-01-17T05:14:11.235Z,3.38
2023-01-17T05:19:16.611Z,3.80
2023-01-17T05:24:20.521Z,3.20
2023-01-17T05:29:24.172Z,2.92
2023-01-17T05:34:28.985Z,2.55
2023-01-17T05:39:32.409Z,3.10
2023-01-17T05:44:36.183Z,2.60
2023-01-17T05:49:40.933Z,2.58
2023-01-17T05:54:44.343Z,2.78
2023-01-17T05:59:47.783Z,2.05
2023-01-17T06:04:52.578Z,2.83
2023-01-17T06:09:56.365Z,3.17
2023-01-17T06:14:59.770Z,2.72
2023-01-17T06:20:05.630Z,2.10
2023-01-17T06:25:10.259Z,1.83
2023-01-17T06:30:14.471Z,1.65
2023-01-17T06:35:19.756Z,1.75
2023-01-17T06:40:25.068Z,1.95
2023-01-17T06:45:30.278Z,1.58
2023-01-17T06:50:35.238Z,1.48
2023-01-17T06:55:40.516Z,1.35
2023-01-17T07:00:44.714Z,1.40
2023-01-17T07:05:49.898Z,1.27
2023-01-17T07:10:58.678Z,1.70
2023-01-17T07:16:02.568Z,1.35
2023-01-17T07:21:14.310Z,1.52
2023-01-17T07:26:18.111Z,1.90
2023-01-17T07:31:21.556Z,2.63
2023-01-17T07:36:26.438Z,2.40
2023-01-17T07:41:32.336Z,2.63
2023-01-17T07:46:36.213Z,2.58
2023-01-17T07:51:41.735Z,3.50
2023-01-17T07:56:47.185Z,3.97
2023-01-17T08:01:50.964Z,3.40
2023-01-17T08:06:55.950Z,2.67
2023-01-17T08:11:59.435Z,3.13
2023-01-17T08:17:06.594Z,2.92
2023-01-17T08:22:12.419Z,2.40
2023-01-17T08:27:15.919Z,2.53
2023-01-17T08:32:21.363Z,2.88
2023-01-17T08:37:26.422Z,3.05
2023-01-17T08:42:30.710Z,4.47
2023-01-17T08:47:35.338Z,4.82
2023-01-17T08:52:40.303Z,4.80
2023-01-17T08:57:43.937Z,5.28
2023-01-17T09:02:47.481Z,3.75
2023-01-17T09:07:52.400Z,3.83
2023-01-17T09:12:55.851Z,2.58
2023-01-17T09:18:00.964Z,2.08
2023-01-17T09:23:05.935Z,2.30
2023-01-17T09:28:09.481Z,2.75
2023-01-17T09:33:13.052Z,2.88
2023-01-17T09:38:18.118Z,2.97
2023-01-17T09:43:38.622Z,1.80
2023-01-17T09:48:48.710Z,1.63
2023-01-17T09:53:55.141Z,1.40
2023-01-17T09:59:18.920Z,1.13
2023-01-17T10:04:51.400Z,1.08
2023-01-17T10:10:16.499Z,1.33
2023-01-17T10:15:47.454Z,1.30
2023-01-17T10:20:56.013Z,1.33
2023-01-17T10:26:02.926Z,1.40
2023-01-17T10:31:13.118Z,1.35
2023-01-17T10:36:24.665Z,1.20
2023-01-17T10:41:31.896Z,1.05
2023-01-17T10:46:41.946Z,1.55
2023-01-17T10:52:00.879Z,1.40
2023-01-17T10:57:06.148Z,2.33
2023-01-17T11:02:19.926Z,1.83
2023-01-17T11:07:25.458Z,1.65
2023-01-17T11:12:33.579Z,2.00
2023-01-17T11:17:39.413Z,2.90
2023-01-17T11:22:47.080Z,1.92
2023-01-17T11:28:02.536Z,1.55
2023-01-17T11:33:08.988Z,2.00
2023-01-17T11:38:17.641Z,1.73
2023-01-17T11:43:27.018Z,1.77
2023-01-17T11:48:36.962Z,1.80
2023-01-17T11:53:42.009Z,1.55
2023-01-17T11:58:47.425Z,1.50
2023-01-17T12:04:16.570Z,1.35
2023-01-17T12:09:28.455Z,1.33
2023-01-17T12:14:43.545Z,1.60
2023-01-17T12:20:01.056Z,1.40
2023-01-17T12:25:24.668Z,1.25
2023-01-17T12:31:04.360Z,1.30
2023-01-17T12:36:17.643Z,1.20
2023-01-17T12:41:26.588Z,1.20
2023-01-17T12:46:38.551Z,1.27
2023-01-17T12:51:44.056Z,1.27
2023-01-17T12:56:52.825Z,1.15
2023-01-17T13:02:00.722Z,1.50
2023-01-17T13:07:12.621Z,1.10
2023-01-17T13:12:19.110Z,1.23
2023-01-17T13:17:35.737Z,0.82
2023-01-17T13:22:40.495Z,1.30
2023-01-17T13:28:03.051Z,1.23
2023-01-17T13:33:27.807Z,1.40
2023-01-17T13:38:41.854Z,1.02
2023-01-17T13:44:07.067Z,1.20
2023-01-17T13:49:35.554Z,0.90
2023-01-17T13:54:47.366Z,1.15
2023-01-17T13:59:51.078Z,1.00
2023-01-17T14:05:15.206Z,1.20
2023-01-17T14:10:32.024Z,1.13
2023-01-17T14:15:48.159Z,1.48
2023-01-17T14:21:07.477Z,2.60
2023-01-17T14:26:49.976Z,6.45
2023-01-17T14:32:01.810Z,2.50
2023-01-17T14:37:14.454Z,2.78
2023-01-17T14:42:21.367Z,2.47
2023-01-17T14:47:25.675Z,2.50
2023-01-17T14:52:30.460Z,3.00
2023-01-17T14:57:33.962Z,2.53
2023-01-17T15:02:42.891Z,1.98
2023-01-17T15:07:50.625Z,3.00
2023-01-17T15:12:55.118Z,2.40
2023-01-17T15:18:23.173Z,1.80
2023-01-17T15:23:33.423Z,2.00
2023-01-17T15:28:37.095Z,2.13
2023-01-17T15:33:43.265Z,1.90
2023-01-17T15:38:56.198Z,1.70
2023-01-17T15:43:59.917Z,1.30
2023-01-17T15:49:08.909Z,1.73
2023-01-17T15:54:41.522Z,2.05
2023-01-17T15:59:47.438Z,1.25
2023-01-17T16:04:52.188Z,1.33
2023-01-17T16:10:03.729Z,2.78
2023-01-17T16:15:12.888Z,2.90
2023-01-17T16:20:21.132Z,3.72
2023-01-17T16:25:32.311Z,9.70
2023-01-17T16:30:35.758Z,7.95
2023-01-17T16:35:40.427Z,5.45
2023-01-17T16:40:47.152Z,4.97
2023-01-17T16:45:54.303Z,4.13
2023-01-17T16:50:59.432Z,4.30
2023-01-17T16:56:12.233Z,5.03
2023-01-17T17:01:21.100Z,7.18
2023-01-17T17:06:25.799Z,10.30
2023-01-17T17:11:30.957Z,18.23
2023-01-17T17:16:34.385Z,21.27
2023-01-17T17:21:38.527Z,17.75
2023-01-17T17:26:43.781Z,16.05
2023-01-17T17:31:49.077Z,16.40
2023-01-17T17:36:53.281Z,14.55
2023-01-17T17:41:58.648Z,14.75
2023-01-17T17:47:03.123Z,15.52
2023-01-17T17:52:07.334Z,15.88
2023-01-17T17:57:13.018Z,19.38
2023-01-17T18:02:16.552Z,22.85
2023-01-17T18:07:20.460Z,29.17
2023-01-17T18:12:25.446Z,24.15
2023-01-17T18:17:28.880Z,27.10
2023-01-17T18:22:33.849Z,22.45
2023-01-17T18:27:39.734Z,22.85
2023-01-17T18:32:43.557Z,23.52
2023-01-17T18:37:47.021Z,25.50
2023-01-17T18:42:51.770Z,29.73
2023-01-17T18:47:55.707Z,29.50
2023-01-17T18:52:59.518Z,30.40
2023-01-17T18:58:06.712Z,29.35
2023-01-17T19:03:10.354Z,34.08
2023-01-17T19:08:14.380Z,37.67
2023-01-17T19:13:19.182Z,39.00
2023-01-17T19:18:22.552Z,39.78
2023-01-17T19:23:26.010Z,36.92
2023-01-17T19:28:31.082Z,36.47
2023-01-17T19:33:36.153Z,34.50
2023-01-17T19:38:39.580Z,38.55
2023-01-17T19:43:44.950Z,45.47
2023-01-17T19:48:48.412Z,40.20
2023-01-17T19:53:53.621Z,39.55
2023-01-17T19:59:01.394Z,41.03
2023-01-17T20:04:05.793Z,49.72
2023-01-17T20:09:10.143Z,49.42
2023-01-17T20:14:16.586Z,44.72
2023-01-17T20:19:19.978Z,42.33
2023-01-17T20:24:24.261Z,49.08
2023-01-17T20:29:29.364Z,41.00
2023-01-17T20:34:32.813Z,35.42
2023-01-17T20:39:38.949Z,33.65
2023-01-17T20:44:43.722Z,33.67
2023-01-17T20:49:47.227Z,40.25
2023-01-17T20:54:51.814Z,35.65
2023-01-17T20:59:56.554Z,39.75
2023-01-17T21:05:02.925Z,43.03
2023-01-17T21:10:07.988Z,53.22
2023-01-17T21:15:17.341Z,48.22
2023-01-17T21:20:23.522Z,41.42
2023-01-17T21:25:27.137Z,42.45
2023-01-17T21:30:31.909Z,44.55
2023-01-17T21:35:35.399Z,33.90
2023-01-17T21:40:39.478Z,30.50
2023-01-17T21:45:44.325Z,29.95
2023-01-17T21:50:49.754Z,29.00
2023-01-17T21:56:10.889Z,25.50
2023-01-17T22:01:23.243Z,23.20
2023-01-17T22:06:28.831Z,21.77
2023-01-17T22:11:32.697Z,19.65
2023-01-17T22:16:37.553Z,22.40
2023-01-17T22:21:40.956Z,21.08
2023-01-17T22:26:44.522Z,20.98
2023-01-17T22:31:49.592Z,19.13
2023-01-17T22:36:53.578Z,19.13
2023-01-17T22:41:56.993Z,20.25
2023-01-17T22:47:03.272Z,17.00
2023-01-17T22:52:06.953Z,18.13
2023-01-17T22:57:10.391Z,17.55
2023-01-17T23:02:16.541Z,19.33
2023-01-17T23:07:20.176Z,20.08
2023-01-17T23:12:24.147Z,20.17
2023-01-17T23:17:48.718Z,20.75
2023-01-17T23:22:52.353Z,24.20
2023-01-17T23:28:20.671Z,23.10
2023-01-17T23:33:25.864Z,20.38
2023-01-17T23:38:33.956Z,18.90
2023-01-17T23:43:38.826Z,18.02
2023-01-17T23:48:43.583Z,18.13
2023-01-17T23:53:47.596Z,19.25
2023-01-17T23:58:51.082Z,20.38
